sensor_id;sensor_type;location;lat;lon;timestamp;P1;durP1;ratioP1;P2;durP2;ratioP2
47367;SDS011;34646;47.964;7.982;2022-08-07T00:02:20;1.92;;;1.50;;
47367;SDS011;34646;47.964;7.982;2022-08-07T00:08:20;2.03;;;1.53;;
47367;SDS011;34646;47.964;7.982;2022-08-07T00:14:24;3.55;;;1.77;;
47367;SDS011;34646;47.964;7.982;2022-08-07T00:20:28;2.50;;;1.55;;
47367;SDS011;34646;47.964;7.982;2022-08-07T00:26:29;3.30;;;1.70;;
47367;SDS011;34646;47.964;7.982;2022-08-07T00:32:29;2.10;;;1.33;;
47367;SDS011;34646;47.964;7.982;2022-08-07T00:38:30;3.83;;;2.03;;
47367;SDS011;34646;47.964;7.982;2022-08-07T00:44:33;2.53;;;1.52;;
47367;SDS011;34646;47.964;7.982;2022-08-07T00:50:35;3.55;;;1.52;;
47367;SDS011;34646;47.964;7.982;2022-08-07T00:56:36;2.03;;;1.45;;
47367;SDS011;34646;47.964;7.982;2022-08-07T01:02:37;2.77;;;1.60;;
47367;SDS011;34646;47.964;7.982;2022-08-07T01:08:39;2.05;;;1.38;;
47367;SDS011;34646;47.964;7.982;2022-08-07T01:14:41;3.13;;;1.80;;
47367;SDS011;34646;47.964;7.982;2022-08-07T01:20:49;2.70;;;1.70;;
47367;SDS011;34646;47.964;7.982;2022-08-07T01:27:10;2.05;;;1.70;;
47367;SDS011;34646;47.964;7.982;2022-08-07T01:33:11;2.22;;;1.60;;
47367;SDS011;34646;47.964;7.982;2022-08-07T01:39:11;4.15;;;1.58;;
47367;SDS011;34646;47.964;7.982;2022-08-07T01:45:17;2.22;;;1.70;;
47367;SDS011;34646;47.964;7.982;2022-08-07T01:51:24;3.53;;;1.95;;
47367;SDS011;34646;47.964;7.982;2022-08-07T01:57:26;2.05;;;1.42;;
47367;SDS011;34646;47.964;7.982;2022-08-07T02:03:31;2.42;;;1.92;;
47367;SDS011;34646;47.964;7.982;2022-08-07T02:09:34;3.30;;;1.80;;
47367;SDS011;34646;47.964;7.982;2022-08-07T02:21:38;2.05;;;1.55;;
47367;SDS011;34646;47.964;7.982;2022-08-07T02:27:40;2.92;;;1.83;;
47367;SDS011;34646;47.964;7.982;2022-08-07T02:33:42;1.80;;;1.50;;
47367;SDS011;34646;47.964;7.982;2022-08-07T02:39:43;2.05;;;1.42;;
47367;SDS011;34646;47.964;7.982;2022-08-07T02:45:51;2.03;;;1.77;;
47367;SDS011;34646;47.964;7.982;2022-08-07T02:51:54;1.98;;;1.63;;
47367;SDS011;34646;47.964;7.982;2022-08-07T02:58:03;2.97;;;1.77;;
47367;SDS011;34646;47.964;7.982;2022-08-07T03:04:10;2.45;;;1.67;;
47367;SDS011;34646;47.964;7.982;2022-08-07T03:10:13;2.95;;;2.10;;
47367;SDS011;34646;47.964;7.982;2022-08-07T03:16:16;2.97;;;1.70;;
47367;SDS011;34646;47.964;7.982;2022-08-07T03:22:19;5.80;;;1.88;;
47367;SDS011;34646;47.964;7.982;2022-08-07T03:28:23;2.45;;;1.90;;
47367;SDS011;34646;47.964;7.982;2022-08-07T03:34:25;2.50;;;1.83;;
47367;SDS011;34646;47.964;7.982;2022-08-07T03:40:30;1.95;;;1.75;;
47367;SDS011;34646;47.964;7.982;2022-08-07T03:46:32;2.83;;;1.95;;
47367;SDS011;34646;47.964;7.982;2022-08-07T03:52:34;3.00;;;1.75;;
47367;SDS011;34646;47.964;7.982;2022-08-07T03:58:39;2.55;;;1.80;;
47367;SDS011;34646;47.964;7.982;2022-08-07T04:10:43;1.90;;;1.55;;
47367;SDS011;34646;47.964;7.982;2022-08-07T04:16:46;7.90;;;1.70;;
47367;SDS011;34646;47.964;7.982;2022-08-07T04:22:48;3.90;;;1.75;;
47367;SDS011;34646;47.964;7.982;2022-08-07T04:28:50;2.55;;;1.75;;
47367;SDS011;34646;47.964;7.982;2022-08-07T04:34:51;2.58;;;1.95;;
47367;SDS011;34646;47.964;7.982;2022-08-07T04:40:54;2.03;;;1.80;;
47367;SDS011;34646;47.964;7.982;2022-08-07T04:47:13;2.55;;;2.00;;
47367;SDS011;34646;47.964;7.982;2022-08-07T04:59:48;2.83;;;1.90;;
47367;SDS011;34646;47.964;7.982;2022-08-07T05:06:05;3.97;;;2.03;;
47367;SDS011;34646;47.964;7.982;2022-08-07T05:12:15;2.38;;;1.80;;
47367;SDS011;34646;47.964;7.982;2022-08-07T05:18:21;3.35;;;1.60;;
47367;SDS011;34646;47.964;7.982;2022-08-07T05:24:26;2.28;;;2.00;;
47367;SDS011;34646;47.964;7.982;2022-08-07T05:30:29;3.75;;;2.17;;
47367;SDS011;34646;47.964;7.982;2022-08-07T05:36:31;2.33;;;1.90;;
47367;SDS011;34646;47.964;7.982;2022-08-07T05:42:34;3.55;;;1.92;;
47367;SDS011;34646;47.964;7.982;2022-08-07T05:48:35;3.08;;;2.10;;
47367;SDS011;34646;47.964;7.982;2022-08-07T05:54:38;2.83;;;1.85;;
47367;SDS011;34646;47.964;7.982;2022-08-07T06:00:40;3.17;;;2.10;;
47367;SDS011;34646;47.964;7.982;2022-08-07T06:06:46;3.85;;;2.60;;
47367;SDS011;34646;47.964;7.982;2022-08-07T06:12:48;4.75;;;2.80;;
47367;SDS011;34646;47.964;7.982;2022-08-07T06:18:50;7.07;;;2.70;;
47367;SDS011;34646;47.964;7.982;2022-08-07T06:24:52;3.40;;;2.80;;
47367;SDS011;34646;47.964;7.982;2022-08-07T06:30:53;3.97;;;2.90;;
47367;SDS011;34646;47.964;7.982;2022-08-07T06:36:56;13.65;;;3.00;;
47367;SDS011;34646;47.964;7.982;2022-08-07T06:43:03;7.88;;;3.00;;
47367;SDS011;34646;47.964;7.982;2022-08-07T06:49:29;4.07;;;2.50;;
47367;SDS011;34646;47.964;7.982;2022-08-07T06:55:30;3.38;;;2.10;;
47367;SDS011;34646;47.964;7.982;2022-08-07T07:01:33;6.20;;;2.40;;
47367;SDS011;34646;47.964;7.982;2022-08-07T07:07:35;4.65;;;2.22;;
47367;SDS011;34646;47.964;7.982;2022-08-07T07:13:37;4.43;;;2.53;;
47367;SDS011;34646;47.964;7.982;2022-08-07T07:19:43;2.75;;;2.28;;
47367;SDS011;34646;47.964;7.982;2022-08-07T07:25:48;2.80;;;2.28;;
47367;SDS011;34646;47.964;7.982;2022-08-07T07:31:53;2.45;;;2.00;;
47367;SDS011;34646;47.964;7.982;2022-08-07T07:37:55;2.60;;;2.13;;
47367;SDS011;34646;47.964;7.982;2022-08-07T07:43:59;2.45;;;1.70;;
47367;SDS011;34646;47.964;7.982;2022-08-07T07:50:02;2.22;;;1.50;;
47367;SDS011;34646;47.964;7.982;2022-08-07T07:56:05;3.25;;;1.88;;
47367;SDS011;34646;47.964;7.982;2022-08-07T08:02:08;2.20;;;1.65;;
47367;SDS011;34646;47.964;7.982;2022-08-07T08:08:10;3.50;;;1.70;;
47367;SDS011;34646;47.964;7.982;2022-08-07T08:14:12;4.47;;;1.60;;
47367;SDS011;34646;47.964;7.982;2022-08-07T08:20:12;7.93;;;2.30;;
47367;SDS011;34646;47.964;7.982;2022-08-07T08:26:15;7.72;;;2.08;;
47367;SDS011;34646;47.964;7.982;2022-08-07T08:32:37;9.63;;;1.92;;
47367;SDS011;34646;47.964;7.982;2022-08-07T08:38:43;3.72;;;1.30;;
47367;SDS011;34646;47.964;7.982;2022-08-07T08:50:58;3.63;;;1.50;;
47367;SDS011;34646;47.964;7.982;2022-08-07T08:57:06;3.35;;;1.40;;
47367;SDS011;34646;47.964;7.982;2022-08-07T09:03:24;4.32;;;1.60;;
47367;SDS011;34646;47.964;7.982;2022-08-07T09:16:05;2.90;;;1.30;;
47367;SDS011;34646;47.964;7.982;2022-08-07T09:28:39;3.40;;;1.10;;
47367;SDS011;34646;47.964;7.982;2022-08-07T09:41:06;2.45;;;1.13;;
47367;SDS011;34646;47.964;7.982;2022-08-07T09:47:32;5.38;;;1.52;;
47367;SDS011;34646;47.964;7.982;2022-08-07T09:53:34;4.28;;;1.50;;
47367;SDS011;34646;47.964;7.982;2022-08-07T10:44:36;2.20;;;1.30;;
47367;SDS011;34646;47.964;7.982;2022-08-07T10:50:56;1.88;;;1.42;;
47367;SDS011;34646;47.964;7.982;2022-08-07T10:57:20;2.05;;;1.30;;
47367;SDS011;34646;47.964;7.982;2022-08-07T11:04:04;2.97;;;1.45;;
47367;SDS011;34646;47.964;7.982;2022-08-07T11:09:53;2.47;;;1.30;;
47367;SDS011;34646;47.964;7.982;2022-08-07T11:15:58;2.53;;;1.60;;
47367;SDS011;34646;47.964;7.982;2022-08-07T11:22:20;2.47;;;1.58;;
47367;SDS011;34646;47.964;7.982;2022-08-07T11:28:32;2.45;;;1.63;;
47367;SDS011;34646;47.964;7.982;2022-08-07T11:34:52;2.75;;;1.40;;
47367;SDS011;34646;47.964;7.982;2022-08-07T11:40:57;1.70;;;1.30;;
47367;SDS011;34646;47.964;7.982;2022-08-07T11:53:19;2.38;;;1.55;;
47367;SDS011;34646;47.964;7.982;2022-08-07T12:12:07;3.83;;;1.45;;
47367;SDS011;34646;47.964;7.982;2022-08-07T12:18:13;7.55;;;1.50;;
47367;SDS011;34646;47.964;7.982;2022-08-07T12:31:12;5.55;;;1.50;;
47367;SDS011;34646;47.964;7.982;2022-08-07T12:37:24;4.25;;;1.85;;
47367;SDS011;34646;47.964;7.982;2022-08-07T12:43:28;5.15;;;1.45;;
47367;SDS011;34646;47.964;7.982;2022-08-07T13:08:47;8.45;;;1.90;;
47367;SDS011;34646;47.964;7.982;2022-08-07T13:14:58;6.47;;;1.58;;
47367;SDS011;34646;47.964;7.982;2022-08-07T13:21:16;5.25;;;1.35;;
47367;SDS011;34646;47.964;7.982;2022-08-07T13:27:37;6.73;;;1.50;;
47367;SDS011;34646;47.964;7.982;2022-08-07T13:46:21;4.60;;;1.77;;
47367;SDS011;34646;47.964;7.982;2022-08-07T13:52:30;6.18;;;1.92;;
47367;SDS011;34646;47.964;7.982;2022-08-07T13:58:36;12.38;;;2.38;;
47367;SDS011;34646;47.964;7.982;2022-08-07T14:04:59;7.50;;;1.73;;
47367;SDS011;34646;47.964;7.982;2022-08-07T14:11:03;11.18;;;1.77;;
47367;SDS011;34646;47.964;7.982;2022-08-07T14:17:06;7.32;;;1.80;;
47367;SDS011;34646;47.964;7.982;2022-08-07T14:23:14;12.23;;;1.60;;
47367;SDS011;34646;47.964;7.982;2022-08-07T14:29:19;6.47;;;1.98;;
47367;SDS011;34646;47.964;7.982;2022-08-07T14:35:35;6.00;;;1.35;;
47367;SDS011;34646;47.964;7.982;2022-08-07T14:41:36;7.65;;;1.63;;
47367;SDS011;34646;47.964;7.982;2022-08-07T14:47:40;5.63;;;2.00;;
47367;SDS011;34646;47.964;7.982;2022-08-07T14:53:43;10.98;;;1.90;;
47367;SDS011;34646;47.964;7.982;2022-08-07T14:59:45;9.63;;;2.40;;
47367;SDS011;34646;47.964;7.982;2022-08-07T15:05:49;7.75;;;2.00;;
47367;SDS011;34646;47.964;7.982;2022-08-07T15:11:51;7.43;;;1.98;;
47367;SDS011;34646;47.964;7.982;2022-08-07T15:17:57;18.75;;;2.83;;
47367;SDS011;34646;47.964;7.982;2022-08-07T15:24:01;12.68;;;2.08;;
47367;SDS011;34646;47.964;7.982;2022-08-07T15:30:08;7.85;;;1.90;;
47367;SDS011;34646;47.964;7.982;2022-08-07T15:36:10;9.90;;;1.80;;
47367;SDS011;34646;47.964;7.982;2022-08-07T15:48:40;18.17;;;2.63;;
47367;SDS011;34646;47.964;7.982;2022-08-07T15:54:43;12.88;;;2.20;;
47367;SDS011;34646;47.964;7.982;2022-08-07T16:00:47;11.57;;;2.17;;
47367;SDS011;34646;47.964;7.982;2022-08-07T16:06:53;8.05;;;1.80;;
47367;SDS011;34646;47.964;7.982;2022-08-07T16:20:24;3.92;;;1.60;;
47367;SDS011;34646;47.964;7.982;2022-08-07T16:32:27;5.32;;;1.75;;
47367;SDS011;34646;47.964;7.982;2022-08-07T16:52:00;3.83;;;1.40;;
47367;SDS011;34646;47.964;7.982;2022-08-07T17:11:25;25.85;;;2.15;;
47367;SDS011;34646;47.964;7.982;2022-08-07T17:29:55;6.03;;;1.88;;
47367;SDS011;34646;47.964;7.982;2022-08-07T17:36:22;5.18;;;1.70;;
47367;SDS011;34646;47.964;7.982;2022-08-07T17:48:58;9.05;;;1.70;;
47367;SDS011;34646;47.964;7.982;2022-08-07T17:55:12;6.60;;;1.52;;
47367;SDS011;34646;47.964;7.982;2022-08-07T18:01:45;6.03;;;1.45;;
47367;SDS011;34646;47.964;7.982;2022-08-07T18:08:13;5.93;;;1.35;;
47367;SDS011;34646;47.964;7.982;2022-08-07T18:20:44;6.35;;;1.83;;
47367;SDS011;34646;47.964;7.982;2022-08-07T18:33:43;4.65;;;1.48;;
47367;SDS011;34646;47.964;7.982;2022-08-07T18:40:28;4.78;;;1.23;;
47367;SDS011;34646;47.964;7.982;2022-08-07T18:46:54;3.13;;;1.48;;
47367;SDS011;34646;47.964;7.982;2022-08-07T18:59:50;8.40;;;2.08;;
47367;SDS011;34646;47.964;7.982;2022-08-07T19:12:18;6.47;;;1.55;;
47367;SDS011;34646;47.964;7.982;2022-08-07T19:18:28;6.32;;;1.60;;
47367;SDS011;34646;47.964;7.982;2022-08-07T19:24:40;5.00;;;1.38;;
47367;SDS011;34646;47.964;7.982;2022-08-07T19:30:45;2.42;;;1.13;;
47367;SDS011;34646;47.964;7.982;2022-08-07T19:36:51;4.40;;;1.40;;
47367;SDS011;34646;47.964;7.982;2022-08-07T19:42:53;7.57;;;1.60;;
47367;SDS011;34646;47.964;7.982;2022-08-07T19:48:56;5.57;;;1.55;;
47367;SDS011;34646;47.964;7.982;2022-08-07T19:55:05;7.53;;;1.20;;
47367;SDS011;34646;47.964;7.982;2022-08-07T20:01:13;2.03;;;1.30;;
47367;SDS011;34646;47.964;7.982;2022-08-07T20:07:16;2.80;;;1.25;;
47367;SDS011;34646;47.964;7.982;2022-08-07T20:13:27;2.65;;;1.63;;
47367;SDS011;34646;47.964;7.982;2022-08-07T20:19:42;2.53;;;1.30;;
47367;SDS011;34646;47.964;7.982;2022-08-07T20:25:44;2.90;;;1.20;;
47367;SDS011;34646;47.964;7.982;2022-08-07T20:31:46;3.60;;;1.30;;
47367;SDS011;34646;47.964;7.982;2022-08-07T20:37:48;4.15;;;1.45;;
47367;SDS011;34646;47.964;7.982;2022-08-07T20:43:51;2.20;;;1.40;;
47367;SDS011;34646;47.964;7.982;2022-08-07T20:49:53;3.58;;;1.42;;
47367;SDS011;34646;47.964;7.982;2022-08-07T20:55:58;6.40;;;1.27;;
47367;SDS011;34646;47.964;7.982;2022-08-07T21:02:01;2.50;;;1.55;;
47367;SDS011;34646;47.964;7.982;2022-08-07T21:08:13;1.75;;;1.20;;
47367;SDS011;34646;47.964;7.982;2022-08-07T21:14:21;2.78;;;1.65;;
47367;SDS011;34646;47.964;7.982;2022-08-07T21:20:28;3.13;;;1.30;;
47367;SDS011;34646;47.964;7.982;2022-08-07T21:26:33;2.72;;;1.23;;
47367;SDS011;34646;47.964;7.982;2022-08-07T21:58:25;2.42;;;1.27;;
47367;SDS011;34646;47.964;7.982;2022-08-07T22:04:36;1.50;;;1.20;;
47367;SDS011;34646;47.964;7.982;2022-08-07T22:10:42;3.58;;;1.27;;
47367;SDS011;34646;47.964;7.982;2022-08-07T22:16:46;4.35;;;1.50;;
47367;SDS011;34646;47.964;7.982;2022-08-07T22:22:58;2.50;;;1.30;;
47367;SDS011;34646;47.964;7.982;2022-08-07T22:29:55;2.45;;;1.33;;
47367;SDS011;34646;47.964;7.982;2022-08-07T22:35:41;2.08;;;1.30;;
47367;SDS011;34646;47.964;7.982;2022-08-07T22:41:45;3.47;;;1.50;;
47367;SDS011;34646;47.964;7.982;2022-08-07T23:26:21;2.40;;;1.30;;
47367;SDS011;34646;47.964;7.982;2022-08-07T23:32:32;2.00;;;1.48;;
47367;SDS011;34646;47.964;7.982;2022-08-07T23:45:09;1.60;;;1.20;;
47367;SDS011;34646;47.964;7.982;2022-08-07T23:51:27;3.92;;;1.58;;
47367;SDS011;34646;47.964;7.982;2022-08-07T23:57:32;3.03;;;1.40;;
